Time;durP1;ratioP1;P1;durP2;ratioP2;P2;SDS_P1;SDS_P2;PMS_P1;PMS_P2;Temp;Humidity;BMP_temperature;BMP_pressure;BME280_temperature;BME280_humidity;BME280_pressure;Samples;Min_cycle;Max_cycle;Signal;HPM_P1;HPM_P2
2020/10/19 09:17:34;;;;;;;;;29.50;25.75;;;;;;;;3683906;38;1506070;-48
2020/10/19 09:20:00;;;;;;;;;20.75;19.25;;;;;;;;3728730;37;18405;-48
2020/10/19 09:22:26;;;;;;;;;28.75;23.25;;;;;;;;3728108;37;20843;-47
2020/10/19 09:24:52;;;;;;;;;23.50;21.75;;;;;;;;3728269;38;18282;-47
2020/10/19 09:27:18;;;;;;;;;30.00;25.75;;;;;;;;3728243;38;18250;-46
2020/10/19 09:29:44;;;;;;;;;23.75;23.25;;;;;;;;3728371;38;18252;-48
2020/10/19 09:32:10;;;;;;;;;25.75;20.75;;;;;;;;3728286;37;18245;-49
2020/10/19 09:34:36;;;;;;;;;17.50;17.00;;;;;;;;3728273;37;18253;-48
2020/10/19 09:37:02;;;;;;;;;21.00;19.00;;;;;;;;3728225;38;18246;-48
2020/10/19 09:39:28;;;;;;;;;25.25;19.25;;;;;;;;3728271;37;18244;-47
2020/10/19 09:41:54;;;;;;;;;20.00;18.25;;;;;;;;3728442;38;18245;-52
2020/10/19 09:44:20;;;;;;;;;18.00;17.00;;;;;;;;3728298;38;20809;-48
2020/10/19 09:46:46;;;;;;;;;17.50;16.00;;;;;;;;3728452;38;18228;-48
2020/10/19 09:49:12;;;;;;;;;16.00;16.00;;;;;;;;3728418;37;18238;-49
2020/10/19 09:51:38;;;;;;;;;15.75;14.50;;;;;;;;3728325;37;18198;-49
2020/10/19 09:54:03;;;;;;;;;18.25;17.25;;;;;;;;3728467;37;18244;-48
2020/10/19 09:56:29;;;;;;;;;17.75;15.75;;;;;;;;3728472;37;18202;-48
2020/10/19 09:58:55;;;;;;;;;16.75;15.75;;;;;;;;3728295;37;18205;-48
2020/10/19 10:01:21;;;;;;;;;15.75;15.00;;;;;;;;3728471;37;18190;-49
2020/10/19 10:03:47;;;;;;;;;15.00;13.00;;;;;;;;3728409;38;18234;-48
2020/10/19 10:06:13;;;;;;;;;16.75;14.00;;;;;;;;3728403;38;18216;-48
2020/10/19 10:08:39;;;;;;;;;14.25;13.00;;;;;;;;3728304;37;18197;-49
2020/10/19 10:11:05;;;;;;;;;14.00;12.00;;;;;;;;3728273;38;18173;-48
2020/10/19 10:13:31;;;;;;;;;16.25;15.25;;;;;;;;3728146;38;18193;-49
2020/10/19 10:15:57;;;;;;;;;18.75;13.25;;;;;;;;3727332;38;18255;-50
2020/10/19 10:18:23;;;;;;;;;14.25;11.50;;;;;;;;3728076;37;18245;-48
2020/10/19 10:20:48;;;;;;;;;14.50;13.50;;;;;;;;3728099;38;18249;-48
2020/10/19 10:23:15;;;;;;;;;12.75;11.75;;;;;;;;3728090;38;18235;-48
2020/10/19 10:25:41;;;;;;;;;13.25;12.50;;;;;;;;3727837;37;18245;-48
2020/10/19 10:28:07;;;;;;;;;14.50;12.25;;;;;;;;3727393;37;21262;-48
2020/10/19 10:30:33;;;;;;;;;12.00;11.00;;;;;;;;3727897;38;18233;-48
2020/10/19 10:32:59;;;;;;;;;12.75;11.75;;;;;;;;3728104;38;21404;-49
2020/10/19 10:35:25;;;;;;;;;13.00;12.50;;;;;;;;3722051;38;63251;-48
2020/10/19 10:37:53;;;;;;;;;14.75;13.00;;;;;;;;3728032;37;18206;-54
2020/10/19 10:40:20;;;;;;;;;13.25;12.00;;;;;;;;3727583;38;18214;-48
2020/10/19 10:42:46;;;;;;;;;10.50;9.50;;;;;;;;3727731;38;21324;-49
2020/10/19 10:45:12;;;;;;;;;13.25;11.25;;;;;;;;3728167;37;21258;-51
2020/10/19 10:47:38;;;;;;;;;14.00;12.00;;;;;;;;3727649;37;21331;-50
2020/10/19 10:50:04;;;;;;;;;14.00;12.50;;;;;;;;3727698;38;18209;-50
2020/10/19 10:52:30;;;;;;;;;11.00;9.75;;;;;;;;3727766;37;18212;-49
2020/10/19 10:54:56;;;;;;;;;14.00;12.25;;;;;;;;3728184;37;21308;-49
2020/10/19 10:57:22;;;;;;;;;13.00;11.75;;;;;;;;3728016;38;21302;-50
2020/10/19 10:59:48;;;;;;;;;12.00;9.00;;;;;;;;3728224;38;21194;-49
2020/10/19 11:02:14;;;;;;;;;6.50;4.75;;;;;;;;3728147;37;18199;-50
2020/10/19 11:04:40;;;;;;;;;11.00;9.50;;;;;;;;3728180;37;18167;-49
2020/10/19 11:07:06;;;;;;;;;10.50;8.00;;;;;;;;3727979;37;21224;-49
2020/10/19 11:13:45;;;;;;;;;7.75;6.75;;;;;;;;3728545;38;38576;-49
2020/10/19 11:16:11;;;;;;;;;12.00;8.00;;;;;;;;3728696;37;20940;-49
2020/10/19 11:18:38;;;;;;;;;9.25;7.75;;;;;;;;3728251;38;20907;-51
2020/10/19 11:21:05;;;;;;;;;7.50;7.00;;;;;;;;3728506;37;20895;-51
2020/10/19 11:23:31;;;;;;;;;8.50;7.50;;;;;;;;3728892;38;18275;-50
2020/10/19 11:25:58;;;;;;;;;12.75;10.00;;;;;;;;3728472;38;20914;-51
2020/10/19 11:28:25;;;;;;;;;13.50;9.00;;;;;;;;3728502;38;20916;-49
2020/10/19 11:30:54;;;;;;;;;16.75;12.75;;;;;;;;3728527;37;20918;-52
2020/10/19 11:33:20;;;;;;;;;13.75;10.50;;;;;;;;3728130;37;20928;-52
2020/10/19 11:35:46;;;;;;;;;14.25;10.50;;;;;;;;3728298;37;20925;-51
2020/10/19 11:38:12;;;;;;;;;11.25;8.50;;;;;;;;3728418;37;18255;-50
2020/10/19 11:40:38;;;;;;;;;14.00;8.25;;;;;;;;3728327;38;18255;-50
2020/10/19 11:43:04;;;;;;;;;14.50;9.00;;;;;;;;3728304;37;20915;-51
2020/10/19 11:45:31;;;;;;;;;12.00;7.50;;;;;;;;3728288;37;18266;-51
2020/10/19 11:47:59;;;;;;;;;9.50;8.75;;;;;;;;3728301;38;20890;-50
2020/10/19 11:50:25;;;;;;;;;9.75;8.50;;;;;;;;3728210;38;20885;-52
2020/10/19 11:52:51;;;;;;;;;8.00;6.00;;;;;;;;3728187;38;20854;-52
2020/10/19 11:55:18;;;;;;;;;8.50;7.75;;;;;;;;3728334;37;18248;-52
2020/10/19 11:57:44;;;;;;;;;10.50;7.75;;;;;;;;3728228;38;18238;-50
2020/10/19 12:00:10;;;;;;;;;10.75;9.00;;;;;;;;3728378;37;20892;-53
